sensor_id;sensor_type;location;lat;lon;timestamp;temperature;humidity
12119;DHT22;6123;48.864;9.200;2023-04-03T06:43:45;4.40;99.90
12119;DHT22;6123;48.864;9.200;2023-04-03T06:46:15;4.50;99.90
12119;DHT22;6123;48.864;9.200;2023-04-03T06:48:41;4.50;99.90
12119;DHT22;6123;48.864;9.200;2023-04-03T06:51:08;4.50;99.90
12119;DHT22;6123;48.864;9.200;2023-04-03T06:53:35;4.60;99.90
12119;DHT22;6123;48.864;9.200;2023-04-03T06:56:01;4.70;99.90
12119;DHT22;6123;48.864;9.200;2023-04-03T06:58:27;4.80;99.90
12119;DHT22;6123;48.864;9.200;2023-04-03T07:00:52;4.80;99.90
12119;DHT22;6123;48.864;9.200;2023-04-03T07:03:21;4.90;99.90
12119;DHT22;6123;48.864;9.200;2023-04-03T07:05:49;4.90;99.90
12119;DHT22;6123;48.864;9.200;2023-04-03T07:08:14;4.90;99.90
12119;DHT22;6123;48.864;9.200;2023-04-03T07:10:40;4.90;99.90
12119;DHT22;6123;48.864;9.200;2023-04-03T07:13:06;5.00;99.90
12119;DHT22;6123;48.864;9.200;2023-04-03T07:15:31;5.10;99.90
12119;DHT22;6123;48.864;9.200;2023-04-03T07:17:59;5.00;99.90
12119;DHT22;6123;48.864;9.200;2023-04-03T07:20:25;5.10;99.90
12119;DHT22;6123;48.864;9.200;2023-04-03T07:22:51;5.00;99.90
12119;DHT22;6123;48.864;9.200;2023-04-03T07:25:17;5.10;99.90
12119;DHT22;6123;48.864;9.200;2023-04-03T07:27:42;5.30;99.90
12119;DHT22;6123;48.864;9.200;2023-04-03T07:30:11;5.30;99.90
12119;DHT22;6123;48.864;9.200;2023-04-03T07:32:39;5.40;99.90
12119;DHT22;6123;48.864;9.200;2023-04-03T07:35:05;5.50;99.90
12119;DHT22;6123;48.864;9.200;2023-04-03T07:37:31;5.70;99.90
12119;DHT22;6123;48.864;9.200;2023-04-03T07:39:57;6.00;99.90
12119;DHT22;6123;48.864;9.200;2023-04-03T07:42:24;6.00;99.90
12119;DHT22;6123;48.864;9.200;2023-04-03T07:44:53;6.00;99.90
12119;DHT22;6123;48.864;9.200;2023-04-03T07:47:21;6.30;99.90
12119;DHT22;6123;48.864;9.200;2023-04-03T07:49:49;6.40;99.90
12119;DHT22;6123;48.864;9.200;2023-04-03T07:52:15;6.40;99.90
12119;DHT22;6123;48.864;9.200;2023-04-03T07:54:41;6.40;99.90
12119;DHT22;6123;48.864;9.200;2023-04-03T07:57:07;6.10;99.90
12119;DHT22;6123;48.864;9.200;2023-04-03T07:59:33;6.20;99.90
12119;DHT22;6123;48.864;9.200;2023-04-03T08:01:59;5.70;99.90
12119;DHT22;6123;48.864;9.200;2023-04-03T08:04:27;6.30;99.90
12119;DHT22;6123;48.864;9.200;2023-04-03T08:06:55;6.40;99.90
12119;DHT22;6123;48.864;9.200;2023-04-03T08:09:21;6.40;99.90
12119;DHT22;6123;48.864;9.200;2023-04-03T08:11:47;6.40;99.90
12119;DHT22;6123;48.864;9.200;2023-04-03T08:14:13;6.40;99.90
12119;DHT22;6123;48.864;9.200;2023-04-03T08:16:43;6.40;99.90
12119;DHT22;6123;48.864;9.200;2023-04-03T08:19:09;6.40;99.90
12119;DHT22;6123;48.864;9.200;2023-04-03T08:21:40;6.50;99.90
12119;DHT22;6123;48.864;9.200;2023-04-03T08:24:07;6.40;99.90
12119;DHT22;6123;48.864;9.200;2023-04-03T08:26:35;6.50;99.90
12119;DHT22;6123;48.864;9.200;2023-04-03T08:29:01;6.60;99.90
12119;DHT22;6123;48.864;9.200;2023-04-03T08:31:27;6.20;99.90
12119;DHT22;6123;48.864;9.200;2023-04-03T08:33:54;6.30;99.90
12119;DHT22;6123;48.864;9.200;2023-04-03T08:36:25;6.40;99.90
12119;DHT22;6123;48.864;9.200;2023-04-03T08:38:52;6.60;99.90
12119;DHT22;6123;48.864;9.200;2023-04-03T08:41:41;6.60;99.90
12119;DHT22;6123;48.864;9.200;2023-04-03T08:49:44;6.90;99.90
12119;DHT22;6123;48.864;9.200;2023-04-03T08:52:34;6.70;99.90
12119;DHT22;6123;48.864;9.200;2023-04-03T08:55:10;6.90;99.90
12119;DHT22;6123;48.864;9.200;2023-04-03T08:57:43;7.00;99.90
12119;DHT22;6123;48.864;9.200;2023-04-03T09:00:24;7.20;99.90
12119;DHT22;6123;48.864;9.200;2023-04-03T09:02:56;7.60;99.90
12119;DHT22;6123;48.864;9.200;2023-04-03T09:05:46;7.70;99.90
12119;DHT22;6123;48.864;9.200;2023-04-03T09:08:22;8.10;99.90
12119;DHT22;6123;48.864;9.200;2023-04-03T09:10:50;8.20;99.90
12119;DHT22;6123;48.864;9.200;2023-04-03T09:13:21;7.80;99.90
12119;DHT22;6123;48.864;9.200;2023-04-03T09:15:49;7.50;99.90
12119;DHT22;6123;48.864;9.200;2023-04-03T09:18:35;7.40;99.90
12119;DHT22;6123;48.864;9.200;2023-04-03T09:23:50;7.40;99.90
12119;DHT22;6123;48.864;9.200;2023-04-03T09:26:28;7.50;99.90
12119;DHT22;6123;48.864;9.200;2023-04-03T09:29:01;7.60;99.90
12119;DHT22;6123;48.864;9.200;2023-04-03T09:31:30;7.80;99.90
12119;DHT22;6123;48.864;9.200;2023-04-03T09:34:03;7.80;99.90
12119;DHT22;6123;48.864;9.200;2023-04-03T09:36:45;7.60;99.90
12119;DHT22;6123;48.864;9.200;2023-04-03T09:39:29;7.40;99.90
12119;DHT22;6123;48.864;9.200;2023-04-03T09:41:57;7.50;99.90
12119;DHT22;6123;48.864;9.200;2023-04-03T09:44:41;7.50;99.90
12119;DHT22;6123;48.864;9.200;2023-04-03T09:47:34;7.50;99.90
12119;DHT22;6123;48.864;9.200;2023-04-03T09:52:39;7.40;99.90
12119;DHT22;6123;48.864;9.200;2023-04-03T09:55:07;7.40;99.90
12119;DHT22;6123;48.864;9.200;2023-04-03T09:57:34;7.50;99.90
12119;DHT22;6123;48.864;9.200;2023-04-03T10:00:01;7.50;99.90
12119;DHT22;6123;48.864;9.200;2023-04-03T10:02:45;7.60;99.90
12119;DHT22;6123;48.864;9.200;2023-04-03T10:08:28;7.60;99.90
12119;DHT22;6123;48.864;9.200;2023-04-03T10:13:56;7.50;99.90
12119;DHT22;6123;48.864;9.200;2023-04-03T10:16:49;7.30;99.90
12119;DHT22;6123;48.864;9.200;2023-04-03T10:30:26;7.40;99.90
12119;DHT22;6123;48.864;9.200;2023-04-03T10:35:49;7.50;99.90
12119;DHT22;6123;48.864;9.200;2023-04-03T10:41:33;7.50;99.90
12119;DHT22;6123;48.864;9.200;2023-04-03T10:44:14;7.40;99.90
12119;DHT22;6123;48.864;9.200;2023-04-03T10:46:42;7.50;99.90
12119;DHT22;6123;48.864;9.200;2023-04-03T10:49:19;7.50;99.90
12119;DHT22;6123;48.864;9.200;2023-04-03T10:51:48;7.60;99.90
12119;DHT22;6123;48.864;9.200;2023-04-03T10:54:36;7.50;99.90
12119;DHT22;6123;48.864;9.200;2023-04-03T10:57:06;7.40;99.90
12119;DHT22;6123;48.864;9.200;2023-04-03T10:59:42;7.60;99.90
12119;DHT22;6123;48.864;9.200;2023-04-03T11:02:37;7.60;99.90
12119;DHT22;6123;48.864;9.200;2023-04-03T11:05:17;7.70;99.90
12119;DHT22;6123;48.864;9.200;2023-04-03T11:07:47;7.90;99.90
12119;DHT22;6123;48.864;9.200;2023-04-03T11:10:46;7.80;99.90
12119;DHT22;6123;48.864;9.200;2023-04-03T11:13:30;7.90;99.90
12119;DHT22;6123;48.864;9.200;2023-04-03T11:15:58;7.70;99.90
12119;DHT22;6123;48.864;9.200;2023-04-03T11:18:31;7.60;99.90
12119;DHT22;6123;48.864;9.200;2023-04-03T11:23:35;7.60;99.90
12119;DHT22;6123;48.864;9.200;2023-04-03T11:26:22;7.60;99.90
12119;DHT22;6123;48.864;9.200;2023-04-03T11:29:01;7.60;99.90
12119;DHT22;6123;48.864;9.200;2023-04-03T11:36:58;7.50;99.90
12119;DHT22;6123;48.864;9.200;2023-04-03T11:39:34;7.50;99.90
12119;DHT22;6123;48.864;9.200;2023-04-03T11:44:41;7.60;99.90
12119;DHT22;6123;48.864;9.200;2023-04-03T11:47:11;7.40;99.90
12119;DHT22;6123;48.864;9.200;2023-04-03T11:50:02;7.40;99.90
12119;DHT22;6123;48.864;9.200;2023-04-03T12:05:53;8.10;99.90
12119;DHT22;6123;48.864;9.200;2023-04-03T12:14:02;7.80;99.90
12119;DHT22;6123;48.864;9.200;2023-04-03T12:48:51;8.10;99.90
12119;DHT22;6123;48.864;9.200;2023-04-03T12:56:48;7.90;99.90
12119;DHT22;6123;48.864;9.200;2023-04-03T12:59:23;7.80;99.90
12119;DHT22;6123;48.864;9.200;2023-04-03T13:02:00;8.00;99.90
12119;DHT22;6123;48.864;9.200;2023-04-03T13:04:30;8.10;99.90
12119;DHT22;6123;48.864;9.200;2023-04-03T13:07:01;8.10;99.90
12119;DHT22;6123;48.864;9.200;2023-04-03T13:09:29;8.10;99.90
12119;DHT22;6123;48.864;9.200;2023-04-03T13:12:10;8.10;99.90
12119;DHT22;6123;48.864;9.200;2023-04-03T13:14:40;8.20;99.90
12119;DHT22;6123;48.864;9.200;2023-04-03T13:17:13;8.10;99.90
12119;DHT22;6123;48.864;9.200;2023-04-03T13:19:39;8.00;99.90
12119;DHT22;6123;48.864;9.200;2023-04-03T13:22:32;8.40;99.90
12119;DHT22;6123;48.864;9.200;2023-04-03T13:25:06;8.20;99.90
12119;DHT22;6123;48.864;9.200;2023-04-03T13:27:35;8.30;99.90
12119;DHT22;6123;48.864;9.200;2023-04-03T13:30:04;8.40;99.90
12119;DHT22;6123;48.864;9.200;2023-04-03T13:32:32;8.40;99.90
12119;DHT22;6123;48.864;9.200;2023-04-03T13:35:01;8.50;99.90
12119;DHT22;6123;48.864;9.200;2023-04-03T13:37:32;8.60;99.90
12119;DHT22;6123;48.864;9.200;2023-04-03T13:42:34;9.70;99.90
12119;DHT22;6123;48.864;9.200;2023-04-03T13:45:26;9.80;99.70
12119;DHT22;6123;48.864;9.200;2023-04-03T13:48:06;9.70;99.00
12119;DHT22;6123;48.864;9.200;2023-04-03T13:50:33;9.70;98.90
12119;DHT22;6123;48.864;9.200;2023-04-03T13:53:13;9.50;99.90
12119;DHT22;6123;48.864;9.200;2023-04-03T13:55:58;9.40;99.90
12119;DHT22;6123;48.864;9.200;2023-04-03T13:58:29;9.40;99.90
12119;DHT22;6123;48.864;9.200;2023-04-03T14:01:19;9.10;99.90
12119;DHT22;6123;48.864;9.200;2023-04-03T14:04:09;9.00;99.90
12119;DHT22;6123;48.864;9.200;2023-04-03T14:06:35;9.10;99.90
12119;DHT22;6123;48.864;9.200;2023-04-03T14:09:01;9.20;99.90
12119;DHT22;6123;48.864;9.200;2023-04-03T14:11:31;9.10;99.90
12119;DHT22;6123;48.864;9.200;2023-04-03T14:14:00;9.00;99.80
12119;DHT22;6123;48.864;9.200;2023-04-03T14:16:30;8.80;99.90
12119;DHT22;6123;48.864;9.200;2023-04-03T14:18:56;8.70;98.50
12119;DHT22;6123;48.864;9.200;2023-04-03T14:21:22;8.60;97.70
12119;DHT22;6123;48.864;9.200;2023-04-03T14:23:49;8.50;98.40
12119;DHT22;6123;48.864;9.200;2023-04-03T14:26:18;8.70;98.20
12119;DHT22;6123;48.864;9.200;2023-04-03T14:28:50;8.90;97.50
12119;DHT22;6123;48.864;9.200;2023-04-03T14:31:19;9.40;96.90
12119;DHT22;6123;48.864;9.200;2023-04-03T14:33:48;9.40;95.40
12119;DHT22;6123;48.864;9.200;2023-04-03T14:36:20;9.40;96.10
12119;DHT22;6123;48.864;9.200;2023-04-03T14:38:47;9.40;97.90
12119;DHT22;6123;48.864;9.200;2023-04-03T14:41:14;9.50;96.60
12119;DHT22;6123;48.864;9.200;2023-04-03T14:43:40;9.40;97.00
12119;DHT22;6123;48.864;9.200;2023-04-03T14:46:34;9.20;97.40
12119;DHT22;6123;48.864;9.200;2023-04-03T14:48:58;9.10;97.30
12119;DHT22;6123;48.864;9.200;2023-04-03T14:51:24;9.10;95.70
12119;DHT22;6123;48.864;9.200;2023-04-03T14:53:50;9.50;97.30
12119;DHT22;6123;48.864;9.200;2023-04-03T14:56:23;9.10;94.70
12119;DHT22;6123;48.864;9.200;2023-04-03T14:58:54;8.90;95.60
12119;DHT22;6123;48.864;9.200;2023-04-03T15:01:20;8.80;96.60
12119;DHT22;6123;48.864;9.200;2023-04-03T15:03:46;9.10;96.50
12119;DHT22;6123;48.864;9.200;2023-04-03T15:09:35;10.30;93.30
12119;DHT22;6123;48.864;9.200;2023-04-03T15:12:02;10.60;93.80
12119;DHT22;6123;48.864;9.200;2023-04-03T15:14:28;10.80;92.10
12119;DHT22;6123;48.864;9.200;2023-04-03T15:16:53;10.40;91.30
12119;DHT22;6123;48.864;9.200;2023-04-03T15:19:19;10.10;92.30
12119;DHT22;6123;48.864;9.200;2023-04-03T15:21:46;9.80;93.70
12119;DHT22;6123;48.864;9.200;2023-04-03T15:24:12;9.70;93.70
12119;DHT22;6123;48.864;9.200;2023-04-03T15:26:38;9.10;95.20
12119;DHT22;6123;48.864;9.200;2023-04-03T15:29:04;8.90;95.10
12119;DHT22;6123;48.864;9.200;2023-04-03T15:31:30;8.80;96.60
12119;DHT22;6123;48.864;9.200;2023-04-03T15:33:56;8.70;96.30
12119;DHT22;6123;48.864;9.200;2023-04-03T15:36:22;8.50;96.60
12119;DHT22;6123;48.864;9.200;2023-04-03T15:38:48;8.60;96.50
12119;DHT22;6123;48.864;9.200;2023-04-03T15:41:13;9.20;94.50
12119;DHT22;6123;48.864;9.200;2023-04-03T15:43:41;9.70;93.90
12119;DHT22;6123;48.864;9.200;2023-04-03T15:46:07;10.40;91.70
12119;DHT22;6123;48.864;9.200;2023-04-03T15:48:33;10.70;88.00
12119;DHT22;6123;48.864;9.200;2023-04-03T15:50:59;11.00;86.00
12119;DHT22;6123;48.864;9.200;2023-04-03T15:53:25;11.20;83.80
12119;DHT22;6123;48.864;9.200;2023-04-03T15:55:51;11.20;84.30
12119;DHT22;6123;48.864;9.200;2023-04-03T15:58:17;11.70;81.60
12119;DHT22;6123;48.864;9.200;2023-04-03T16:00:42;11.30;83.30
12119;DHT22;6123;48.864;9.200;2023-04-03T16:03:12;10.20;86.10
12119;DHT22;6123;48.864;9.200;2023-04-03T16:05:41;9.60;91.10
12119;DHT22;6123;48.864;9.200;2023-04-03T16:08:08;9.40;92.40
12119;DHT22;6123;48.864;9.200;2023-04-03T16:10:37;9.20;93.10
12119;DHT22;6123;48.864;9.200;2023-04-03T16:13:04;9.10;92.00
12119;DHT22;6123;48.864;9.200;2023-04-03T16:15:30;9.00;92.30
12119;DHT22;6123;48.864;9.200;2023-04-03T16:17:57;8.60;92.80
12119;DHT22;6123;48.864;9.200;2023-04-03T16:20:24;8.70;92.50
12119;DHT22;6123;48.864;9.200;2023-04-03T16:22:52;8.70;92.90
12119;DHT22;6123;48.864;9.200;2023-04-03T16:25:20;9.30;92.90
12119;DHT22;6123;48.864;9.200;2023-04-03T16:27:46;10.00;92.40
12119;DHT22;6123;48.864;9.200;2023-04-03T16:30:11;10.10;89.50
12119;DHT22;6123;48.864;9.200;2023-04-03T16:32:40;9.80;90.40
12119;DHT22;6123;48.864;9.200;2023-04-03T16:35:06;9.30;91.20
12119;DHT22;6123;48.864;9.200;2023-04-03T16:37:32;9.10;92.00
12119;DHT22;6123;48.864;9.200;2023-04-03T16:39:58;8.80;92.60
12119;DHT22;6123;48.864;9.200;2023-04-03T16:42:24;8.50;93.70
12119;DHT22;6123;48.864;9.200;2023-04-03T16:44:50;8.50;94.10
12119;DHT22;6123;48.864;9.200;2023-04-03T16:47:16;8.30;93.90
12119;DHT22;6123;48.864;9.200;2023-04-03T16:49:45;8.10;94.90
12119;DHT22;6123;48.864;9.200;2023-04-03T16:52:11;8.20;95.80
12119;DHT22;6123;48.864;9.200;2023-04-03T16:54:36;8.10;97.70
12119;DHT22;6123;48.864;9.200;2023-04-03T16:57:02;8.20;97.80
12119;DHT22;6123;48.864;9.200;2023-04-03T16:59:28;8.10;98.00
12119;DHT22;6123;48.864;9.200;2023-04-03T17:01:56;8.20;98.10
12119;DHT22;6123;48.864;9.200;2023-04-03T17:04:21;8.20;98.50
12119;DHT22;6123;48.864;9.200;2023-04-03T17:06:47;8.10;98.90
12119;DHT22;6123;48.864;9.200;2023-04-03T17:09:15;7.90;98.50
12119;DHT22;6123;48.864;9.200;2023-04-03T17:11:41;7.80;97.70
12119;DHT22;6123;48.864;9.200;2023-04-03T17:14:06;7.80;98.00
12119;DHT22;6123;48.864;9.200;2023-04-03T17:16:33;7.90;99.60
12119;DHT22;6123;48.864;9.200;2023-04-03T17:19:00;7.70;99.10
12119;DHT22;6123;48.864;9.200;2023-04-03T17:21:30;7.60;99.30
12119;DHT22;6123;48.864;9.200;2023-04-03T17:24:02;7.40;99.20
12119;DHT22;6123;48.864;9.200;2023-04-03T17:26:28;7.40;99.00
12119;DHT22;6123;48.864;9.200;2023-04-03T17:28:56;7.30;99.90
12119;DHT22;6123;48.864;9.200;2023-04-03T17:31:22;7.30;99.90
12119;DHT22;6123;48.864;9.200;2023-04-03T17:33:47;7.10;99.90
12119;DHT22;6123;48.864;9.200;2023-04-03T17:36:13;7.20;99.90
12119;DHT22;6123;48.864;9.200;2023-04-03T17:38:41;7.10;99.90
12119;DHT22;6123;48.864;9.200;2023-04-03T17:41:08;7.00;99.90
12119;DHT22;6123;48.864;9.200;2023-04-03T17:43:36;7.00;99.90
12119;DHT22;6123;48.864;9.200;2023-04-03T17:46:07;6.90;99.90
12119;DHT22;6123;48.864;9.200;2023-04-03T17:48:36;6.80;99.90
12119;DHT22;6123;48.864;9.200;2023-04-03T17:51:06;6.70;99.90
12119;DHT22;6123;48.864;9.200;2023-04-03T17:53:35;6.60;99.90
12119;DHT22;6123;48.864;9.200;2023-04-03T17:56:08;6.60;99.90
12119;DHT22;6123;48.864;9.200;2023-04-03T17:58:34;6.60;99.90
12119;DHT22;6123;48.864;9.200;2023-04-03T18:03:38;6.60;99.90
12119;DHT22;6123;48.864;9.200;2023-04-03T18:06:13;6.60;99.90
12119;DHT22;6123;48.864;9.200;2023-04-03T18:08:50;6.60;99.90
12119;DHT22;6123;48.864;9.200;2023-04-03T18:11:18;6.60;99.90
12119;DHT22;6123;48.864;9.200;2023-04-03T18:13:44;6.40;99.90
12119;DHT22;6123;48.864;9.200;2023-04-03T18:16:11;6.40;99.90
12119;DHT22;6123;48.864;9.200;2023-04-03T18:18:37;6.30;99.90
12119;DHT22;6123;48.864;9.200;2023-04-03T18:21:03;6.20;99.90
12119;DHT22;6123;48.864;9.200;2023-04-03T18:23:31;6.00;99.90
12119;DHT22;6123;48.864;9.200;2023-04-03T18:25:59;6.00;99.90
12119;DHT22;6123;48.864;9.200;2023-04-03T18:28:26;6.00;99.90
12119;DHT22;6123;48.864;9.200;2023-04-03T18:30:52;6.00;99.90
12119;DHT22;6123;48.864;9.200;2023-04-03T18:33:21;5.90;99.90
12119;DHT22;6123;48.864;9.200;2023-04-03T18:35:46;5.80;99.90
12119;DHT22;6123;48.864;9.200;2023-04-03T18:38:14;5.70;99.90
12119;DHT22;6123;48.864;9.200;2023-04-03T18:40:42;5.70;99.90
12119;DHT22;6123;48.864;9.200;2023-04-03T18:43:12;5.50;99.90
12119;DHT22;6123;48.864;9.200;2023-04-03T18:45:40;5.50;99.90
12119;DHT22;6123;48.864;9.200;2023-04-03T18:48:06;5.40;99.90
12119;DHT22;6123;48.864;9.200;2023-04-03T18:50:32;5.40;99.90
12119;DHT22;6123;48.864;9.200;2023-04-03T18:53:00;5.20;99.90
12119;DHT22;6123;48.864;9.200;2023-04-03T18:55:25;5.20;99.90
12119;DHT22;6123;48.864;9.200;2023-04-03T18:57:51;5.30;99.90
12119;DHT22;6123;48.864;9.200;2023-04-03T19:00:17;5.10;99.90
12119;DHT22;6123;48.864;9.200;2023-04-03T19:02:44;5.20;99.90
12119;DHT22;6123;48.864;9.200;2023-04-03T19:05:12;5.00;99.90
12119;DHT22;6123;48.864;9.200;2023-04-03T19:07:43;5.10;99.90
12119;DHT22;6123;48.864;9.200;2023-04-03T19:10:11;5.10;99.90
12119;DHT22;6123;48.864;9.200;2023-04-03T19:12:43;5.10;99.90
12119;DHT22;6123;48.864;9.200;2023-04-03T19:15:14;5.10;99.90
12119;DHT22;6123;48.864;9.200;2023-04-03T19:17:43;4.90;99.90
12119;DHT22;6123;48.864;9.200;2023-04-03T19:20:10;5.00;99.90
12119;DHT22;6123;48.864;9.200;2023-04-03T19:22:36;4.90;99.90
12119;DHT22;6123;48.864;9.200;2023-04-03T19:25:05;4.90;99.90
12119;DHT22;6123;48.864;9.200;2023-04-03T19:27:31;4.90;99.90
12119;DHT22;6123;48.864;9.200;2023-04-03T19:29:57;4.90;99.90
12119;DHT22;6123;48.864;9.200;2023-04-03T19:32:25;5.00;99.90
12119;DHT22;6123;48.864;9.200;2023-04-03T19:34:55;5.00;99.90
12119;DHT22;6123;48.864;9.200;2023-04-03T19:37:21;5.00;99.90
12119;DHT22;6123;48.864;9.200;2023-04-03T19:39:49;4.90;99.90
12119;DHT22;6123;48.864;9.200;2023-04-03T19:42:15;4.90;99.90
12119;DHT22;6123;48.864;9.200;2023-04-03T19:44:43;4.90;99.90
12119;DHT22;6123;48.864;9.200;2023-04-03T19:47:12;4.80;99.90
12119;DHT22;6123;48.864;9.200;2023-04-03T19:49:43;4.80;99.90
12119;DHT22;6123;48.864;9.200;2023-04-03T19:52:08;4.70;99.90
12119;DHT22;6123;48.864;9.200;2023-04-03T19:54:34;4.80;99.90
12119;DHT22;6123;48.864;9.200;2023-04-03T19:57:00;4.60;99.90
12119;DHT22;6123;48.864;9.200;2023-04-03T19:59:26;4.60;99.90
12119;DHT22;6123;48.864;9.200;2023-04-03T20:01:52;4.60;99.90
12119;DHT22;6123;48.864;9.200;2023-04-03T20:04:18;4.60;99.90
12119;DHT22;6123;48.864;9.200;2023-04-03T20:06:43;4.60;99.90
12119;DHT22;6123;48.864;9.200;2023-04-03T20:09:09;4.50;99.90
12119;DHT22;6123;48.864;9.200;2023-04-03T20:11:36;4.50;99.90
12119;DHT22;6123;48.864;9.200;2023-04-03T20:14:06;4.40;99.90
12119;DHT22;6123;48.864;9.200;2023-04-03T20:16:32;4.40;99.90
12119;DHT22;6123;48.864;9.200;2023-04-03T20:18:58;4.30;99.90
12119;DHT22;6123;48.864;9.200;2023-04-03T20:21:33;4.20;99.90
12119;DHT22;6123;48.864;9.200;2023-04-03T20:24:00;4.30;99.90
12119;DHT22;6123;48.864;9.200;2023-04-03T20:26:29;4.20;99.90
12119;DHT22;6123;48.864;9.200;2023-04-03T20:28:58;4.20;99.90
12119;DHT22;6123;48.864;9.200;2023-04-03T20:31:25;4.00;99.90
12119;DHT22;6123;48.864;9.200;2023-04-03T20:33:51;4.00;99.90
12119;DHT22;6123;48.864;9.200;2023-04-03T20:36:18;4.00;99.90
12119;DHT22;6123;48.864;9.200;2023-04-03T20:38:45;3.90;99.90
12119;DHT22;6123;48.864;9.200;2023-04-03T20:41:14;3.90;99.90
12119;DHT22;6123;48.864;9.200;2023-04-03T20:43:42;3.80;99.90
12119;DHT22;6123;48.864;9.200;2023-04-03T20:46:08;3.80;99.90
12119;DHT22;6123;48.864;9.200;2023-04-03T20:48:35;3.80;99.90
12119;DHT22;6123;48.864;9.200;2023-04-03T20:51:14;3.70;99.90
12119;DHT22;6123;48.864;9.200;2023-04-03T20:53:40;3.70;99.90
12119;DHT22;6123;48.864;9.200;2023-04-03T20:56:07;3.60;99.90
12119;DHT22;6123;48.864;9.200;2023-04-03T20:58:34;3.60;99.90
12119;DHT22;6123;48.864;9.200;2023-04-03T21:01:00;3.50;99.90
12119;DHT22;6123;48.864;9.200;2023-04-03T21:03:27;3.50;99.90
12119;DHT22;6123;48.864;9.200;2023-04-03T21:20:27;3.30;99.90
12119;DHT22;6123;48.864;9.200;2023-04-03T21:22:55;3.20;99.90
12119;DHT22;6123;48.864;9.200;2023-04-03T21:25:23;3.20;99.90
12119;DHT22;6123;48.864;9.200;2023-04-03T21:27:51;3.10;99.90
12119;DHT22;6123;48.864;9.200;2023-04-03T21:30:17;3.10;99.90
12119;DHT22;6123;48.864;9.200;2023-04-03T21:32:43;3.10;99.90
12119;DHT22;6123;48.864;9.200;2023-04-03T21:35:10;3.00;99.90
12119;DHT22;6123;48.864;9.200;2023-04-03T21:37:36;3.00;99.90
12119;DHT22;6123;48.864;9.200;2023-04-03T21:40:02;2.90;99.90
12119;DHT22;6123;48.864;9.200;2023-04-03T21:42:28;2.90;99.90
12119;DHT22;6123;48.864;9.200;2023-04-03T21:44:56;2.90;99.90
12119;DHT22;6123;48.864;9.200;2023-04-03T21:47:22;2.90;99.90
12119;DHT22;6123;48.864;9.200;2023-04-03T21:49:51;2.80;99.90
12119;DHT22;6123;48.864;9.200;2023-04-03T21:52:16;2.80;99.90
12119;DHT22;6123;48.864;9.200;2023-04-03T21:54:44;2.70;99.90
12119;DHT22;6123;48.864;9.200;2023-04-03T21:57:10;2.70;99.90
12119;DHT22;6123;48.864;9.200;2023-04-03T21:59:36;2.80;99.90
12119;DHT22;6123;48.864;9.200;2023-04-03T22:02:02;2.60;99.90
12119;DHT22;6123;48.864;9.200;2023-04-03T22:04:31;2.60;99.90
12119;DHT22;6123;48.864;9.200;2023-04-03T22:06:59;2.60;99.90
12119;DHT22;6123;48.864;9.200;2023-04-03T22:09:24;2.70;99.90
12119;DHT22;6123;48.864;9.200;2023-04-03T22:11:51;2.60;99.90
12119;DHT22;6123;48.864;9.200;2023-04-03T22:14:19;2.60;99.90
12119;DHT22;6123;48.864;9.200;2023-04-03T22:16:45;2.50;99.90
12119;DHT22;6123;48.864;9.200;2023-04-03T22:19:12;2.50;99.90
12119;DHT22;6123;48.864;9.200;2023-04-03T22:21:40;2.50;99.90
12119;DHT22;6123;48.864;9.200;2023-04-03T22:24:10;2.40;99.90
12119;DHT22;6123;48.864;9.200;2023-04-03T22:26:38;2.40;99.90
12119;DHT22;6123;48.864;9.200;2023-04-03T22:29:08;2.30;99.90
12119;DHT22;6123;48.864;9.200;2023-04-03T22:31:34;2.30;99.90
12119;DHT22;6123;48.864;9.200;2023-04-03T22:34:01;2.20;99.90
12119;DHT22;6123;48.864;9.200;2023-04-03T22:36:32;2.20;99.90
12119;DHT22;6123;48.864;9.200;2023-04-03T22:39:02;2.20;99.90
12119;DHT22;6123;48.864;9.200;2023-04-03T22:41:29;2.20;99.90
12119;DHT22;6123;48.864;9.200;2023-04-03T22:43:55;2.10;99.90
12119;DHT22;6123;48.864;9.200;2023-04-03T22:46:26;2.10;99.90
12119;DHT22;6123;48.864;9.200;2023-04-03T22:48:56;2.20;99.90
12119;DHT22;6123;48.864;9.200;2023-04-03T22:51:23;2.10;99.90
12119;DHT22;6123;48.864;9.200;2023-04-03T22:53:48;2.10;99.90
12119;DHT22;6123;48.864;9.200;2023-04-03T22:56:14;2.10;99.90
12119;DHT22;6123;48.864;9.200;2023-04-03T22:58:39;2.00;99.90
12119;DHT22;6123;48.864;9.200;2023-04-03T23:01:12;2.10;99.90
12119;DHT22;6123;48.864;9.200;2023-04-03T23:03:42;1.90;99.90
12119;DHT22;6123;48.864;9.200;2023-04-03T23:06:09;1.90;99.90
12119;DHT22;6123;48.864;9.200;2023-04-03T23:08:35;1.80;99.90
12119;DHT22;6123;48.864;9.200;2023-04-03T23:11:05;1.80;99.90
12119;DHT22;6123;48.864;9.200;2023-04-03T23:13:31;1.90;99.90
12119;DHT22;6123;48.864;9.200;2023-04-03T23:15:58;1.60;99.90
12119;DHT22;6123;48.864;9.200;2023-04-03T23:18:25;1.80;99.90
12119;DHT22;6123;48.864;9.200;2023-04-03T23:20:51;1.80;99.90
12119;DHT22;6123;48.864;9.200;2023-04-03T23:23:19;2.00;99.90
12119;DHT22;6123;48.864;9.200;2023-04-03T23:25:49;1.70;99.90
12119;DHT22;6123;48.864;9.200;2023-04-03T23:28:15;1.60;99.90
12119;DHT22;6123;48.864;9.200;2023-04-03T23:30:45;1.50;99.90
12119;DHT22;6123;48.864;9.200;2023-04-03T23:33:11;1.60;99.90
12119;DHT22;6123;48.864;9.200;2023-04-03T23:35:44;1.50;99.90
12119;DHT22;6123;48.864;9.200;2023-04-03T23:38:16;1.60;99.90
12119;DHT22;6123;48.864;9.200;2023-04-03T23:40:47;1.50;99.90
12119;DHT22;6123;48.864;9.200;2023-04-03T23:43:15;1.40;99.90
12119;DHT22;6123;48.864;9.200;2023-04-03T23:45:41;1.50;99.90
12119;DHT22;6123;48.864;9.200;2023-04-03T23:48:10;1.50;99.90
12119;DHT22;6123;48.864;9.200;2023-04-03T23:50:36;1.40;99.90
12119;DHT22;6123;48.864;9.200;2023-04-03T23:53:02;1.20;99.90
12119;DHT22;6123;48.864;9.200;2023-04-03T23:55:28;1.30;99.90
12119;DHT22;6123;48.864;9.200;2023-04-03T23:57:53;1.20;99.90
